Time;durP1;ratioP1;P1;durP2;ratioP2;P2;SDS_P1;SDS_P2;PMS_P1;PMS_P2;Temp;Humidity;BMP_temperature;BMP_pressure;BME280_temperature;BME280_humidity;BME280_pressure;Samples;Min_cycle;Max_cycle;Signal;HPM_P1;HPM_P2
2023/09/24 00:02:45;;;;;;;2.88;1.58;;;19.30;75.20;;;;;;10449792;28;20090;-59
2023/09/24 00:07:46;;;;;;;4.32;1.77;;;19.30;75.30;;;;;;10449395;28;20037;-59
2023/09/24 00:12:47;;;;;;;2.92;1.50;;;19.30;75.20;;;;;;10455137;28;20060;-59
2023/09/24 00:17:48;;;;;;;2.95;1.50;;;19.30;75.30;;;;;;10476038;28;20052;-59
2023/09/24 00:22:48;;;;;;;3.92;1.98;;;19.30;75.10;;;;;;10499180;28;20025;-59
2023/09/24 00:27:49;;;;;;;2.42;1.40;;;19.30;75.30;;;;;;10498421;28;20033;-59
2023/09/24 00:32:53;;;;;;;2.25;1.45;;;19.30;75.30;;;;;;10457458;28;20162;-59
2023/09/24 00:37:54;;;;;;;2.53;1.83;;;19.30;75.30;;;;;;10456729;28;20582;-59
2023/09/24 00:42:55;;;;;;;2.25;1.40;;;19.30;75.30;;;;;;10457040;28;20062;-60
2023/09/24 00:47:57;;;;;;;3.03;1.60;;;19.30;75.10;;;;;;10456570;28;20044;-59
2023/09/24 00:52:58;;;;;;;3.10;1.70;;;19.20;75.20;;;;;;10485071;28;20033;-60
2023/09/24 00:57:59;;;;;;;2.45;1.70;;;19.20;75.40;;;;;;10482105;28;20075;-59
2023/09/24 01:03:00;;;;;;;3.45;1.70;;;19.20;75.20;;;;;;10456245;28;20032;-59
2023/09/24 01:08:01;;;;;;;3.50;1.55;;;19.20;75.30;;;;;;10455298;28;20040;-59
2023/09/24 01:13:04;;;;;;;2.55;1.75;;;19.20;75.30;;;;;;10480934;28;20044;-59
2023/09/24 01:18:07;;;;;;;2.95;1.50;;;19.20;75.30;;;;;;10462378;28;20053;-59
2023/09/24 01:23:14;;;;;;;4.30;1.35;;;19.20;75.30;;;;;;10455185;28;20530;-59
2023/09/24 01:28:14;;;;;;;2.33;1.17;;;19.20;75.20;;;;;;10461434;28;20083;-59
2023/09/24 01:33:15;;;;;;;2.03;1.65;;;19.20;75.80;;;;;;10460572;28;20036;-59
2023/09/24 01:38:16;;;;;;;2.80;1.50;;;19.20;75.10;;;;;;10454338;28;20841;-59
2023/09/24 01:43:17;;;;;;;2.15;1.40;;;19.20;75.10;;;;;;10483199;28;20031;-59
2023/09/24 01:48:17;;;;;;;3.67;1.70;;;19.20;75.00;;;;;;10495431;28;20028;-59
2023/09/24 01:53:18;;;;;;;2.22;1.30;;;19.10;75.10;;;;;;10495362;28;20033;-59
2023/09/24 01:58:19;;;;;;;2.58;1.50;;;19.10;75.00;;;;;;10495021;28;20433;-59
2023/09/24 02:03:19;;;;;;;1.83;1.38;;;19.10;75.00;;;;;;10495059;28;20031;-59
2023/09/24 02:08:20;;;;;;;2.85;1.27;;;19.10;75.00;;;;;;10495011;28;20086;-59
2023/09/24 02:13:21;;;;;;;2.22;1.50;;;19.10;75.00;;;;;;10494793;28;20037;-59
2023/09/24 02:18:22;;;;;;;1.88;1.15;;;19.10;75.10;;;;;;10457917;28;20697;-59
2023/09/24 02:23:23;;;;;;;2.45;1.40;;;19.10;74.90;;;;;;10488623;28;20033;-59
2023/09/24 02:28:24;;;;;;;4.00;1.40;;;19.10;74.90;;;;;;10498452;28;20031;-59
2023/09/24 02:33:26;;;;;;;2.22;1.50;;;19.10;74.90;;;;;;10458782;28;20387;-59
2023/09/24 02:38:28;;;;;;;2.92;1.63;;;19.10;74.80;;;;;;10451857;28;20025;-59
2023/09/24 02:43:32;;;;;;;2.20;1.50;;;19.10;74.70;;;;;;10452302;28;20518;-59
2023/09/24 02:48:33;;;;;;;2.33;1.45;;;19.10;74.70;;;;;;10451594;28;20029;-59
2023/09/24 02:53:35;;;;;;;2.58;1.50;;;19.10;74.80;;;;;;10451814;28;20083;-58
2023/09/24 02:58:36;;;;;;;4.47;1.95;;;19.10;74.70;;;;;;10451029;28;20551;-59
2023/09/24 03:03:38;;;;;;;2.17;1.17;;;19.00;74.60;;;;;;10451435;28;20039;-60
2023/09/24 03:08:38;;;;;;;2.55;2.15;;;19.00;74.60;;;;;;10450887;28;20033;-60
2023/09/24 03:13:39;;;;;;;1.98;1.17;;;19.00;74.70;;;;;;10450732;28;20037;-59
2023/09/24 03:18:40;;;;;;;1.73;1.40;;;19.00;74.50;;;;;;10475781;28;20046;-59
2023/09/24 03:23:40;;;;;;;2.78;1.45;;;19.00;74.40;;;;;;10491915;28;20032;-59
2023/09/24 03:28:41;;;;;;;3.67;1.58;;;19.00;74.40;;;;;;10498007;28;20031;-59
2023/09/24 03:33:43;;;;;;;3.08;1.45;;;19.00;74.50;;;;;;10450245;28;20104;-59
2023/09/24 03:38:45;;;;;;;3.03;1.20;;;19.00;74.40;;;;;;10450781;28;20055;-58
2023/09/24 03:43:45;;;;;;;2.55;1.48;;;19.00;74.40;;;;;;10471695;28;20029;-59
2023/09/24 03:48:46;;;;;;;3.25;1.35;;;19.00;74.30;;;;;;10490857;28;20391;-59
2023/09/24 03:53:47;;;;;;;2.78;1.90;;;19.00;74.30;;;;;;10490904;28;20028;-59
2023/09/24 03:58:48;;;;;;;1.95;1.38;;;18.90;74.30;;;;;;10491250;28;20046;-59
2023/09/24 04:03:49;;;;;;;2.20;1.20;;;19.00;74.30;;;;;;10490908;28;20032;-59
2023/09/24 04:08:50;;;;;;;2.65;1.20;;;18.90;74.20;;;;;;10490880;28;20032;-59
2023/09/24 04:13:51;;;;;;;2.97;1.35;;;18.90;74.30;;;;;;10490426;28;20468;-59
2023/09/24 04:18:52;;;;;;;2.15;1.30;;;18.90;74.20;;;;;;10450311;28;20175;-59
2023/09/24 04:23:54;;;;;;;2.20;1.67;;;18.90;74.10;;;;;;10477169;28;20574;-60
2023/09/24 04:28:55;;;;;;;2.30;1.65;;;18.90;74.20;;;;;;10495444;28;20032;-59
2023/09/24 04:33:56;;;;;;;2.38;1.45;;;18.90;74.10;;;;;;10448679;28;20040;-58
2023/09/24 04:38:57;;;;;;;2.75;1.80;;;18.90;74.20;;;;;;10449748;28;20035;-59
2023/09/24 04:43:57;;;;;;;2.15;1.60;;;18.90;74.10;;;;;;10453789;28;20055;-59
2023/09/24 04:48:58;;;;;;;2.47;1.60;;;18.90;74.80;;;;;;10448908;28;20033;-59
2023/09/24 04:54:00;;;;;;;2.25;1.92;;;18.90;74.20;;;;;;10448523;28;20037;-59
2023/09/24 04:59:01;;;;;;;1.85;1.35;;;18.90;74.20;;;;;;10454411;28;20059;-59
2023/09/24 05:04:02;;;;;;;3.75;1.90;;;18.90;74.20;;;;;;10455832;28;20158;-59
2023/09/24 05:09:03;;;;;;;4.28;2.13;;;18.80;74.10;;;;;;10456062;28;20033;-59
2023/09/24 05:14:04;;;;;;;2.60;1.70;;;18.90;73.60;;;;;;10453702;28;20632;-59
2023/09/24 05:19:06;;;;;;;4.05;2.08;;;18.90;73.70;;;;;;10483759;28;20055;-59
2023/09/24 05:24:08;;;;;;;5.00;1.60;;;18.80;73.80;;;;;;10496702;28;20086;-59
2023/09/24 05:29:09;;;;;;;3.75;2.17;;;18.90;74.00;;;;;;10499915;28;20079;-59
2023/09/24 05:34:09;;;;;;;4.30;1.98;;;18.80;73.60;;;;;;10454705;28;20040;-58
2023/09/24 05:39:11;;;;;;;7.30;2.70;;;18.80;73.10;;;;;;10472164;28;20039;-59
2023/09/24 05:44:12;;;;;;;7.10;2.00;;;18.90;73.40;;;;;;10496197;28;20036;-57
2023/09/24 05:49:13;;;;;;;15.82;3.28;;;19.00;73.50;;;;;;10496246;28;20064;-59
2023/09/24 05:54:14;;;;;;;9.05;2.42;;;19.10;73.30;;;;;;10495815;28;20056;-59
2023/09/24 05:59:15;;;;;;;8.10;2.90;;;19.20;73.40;;;;;;10495637;28;20021;-60
2023/09/24 06:04:16;;;;;;;17.55;3.15;;;19.20;73.60;;;;;;10493522;28;20040;-59
2023/09/24 06:09:17;;;;;;;16.55;3.55;;;19.30;73.20;;;;;;10493629;28;20124;-58
2023/09/24 06:14:18;;;;;;;19.00;4.25;;;19.20;73.70;;;;;;10464317;28;20361;-58
2023/09/24 06:19:19;;;;;;;21.58;3.63;;;19.30;73.60;;;;;;10460856;28;20045;-58
2023/09/24 06:24:20;;;;;;;18.10;4.65;;;19.20;73.70;;;;;;10452801;28;20472;-58
2023/09/24 06:29:21;;;;;;;16.63;4.13;;;19.10;74.20;;;;;;10465210;28;20065;-58
2023/09/24 06:34:22;;;;;;;16.38;4.78;;;19.10;74.30;;;;;;10452262;28;20033;-58
2023/09/24 06:39:25;;;;;;;23.25;4.82;;;19.10;74.60;;;;;;10452348;28;20115;-58
2023/09/24 06:44:26;;;;;;;20.15;5.07;;;19.10;74.60;;;;;;10451673;28;20032;-58
2023/09/24 06:49:27;;;;;;;24.92;4.32;;;19.10;74.00;;;;;;10489016;28;20035;-57
2023/09/24 06:54:28;;;;;;;17.25;4.18;;;19.00;73.80;;;;;;10452071;28;20040;-59
2023/09/24 06:59:28;;;;;;;15.40;3.67;;;19.00;73.80;;;;;;10452141;28;20082;-59
2023/09/24 07:04:29;;;;;;;14.27;4.38;;;19.10;74.30;;;;;;10451300;28;20040;-59
2023/09/24 07:09:30;;;;;;;17.67;4.80;;;19.10;73.50;;;;;;10451215;28;20025;-59
2023/09/24 07:14:31;;;;;;;23.17;5.70;;;19.10;73.10;;;;;;10450799;28;20033;-61
2023/09/24 07:19:32;;;;;;;19.75;5.03;;;19.20;72.70;;;;;;10483412;28;20697;-62
2023/09/24 07:24:33;;;;;;;15.88;4.65;;;19.10;71.10;;;;;;10492162;28;20032;-62
2023/09/24 07:29:34;;;;;;;19.08;4.72;;;19.10;71.20;;;;;;10490657;28;20032;-59
2023/09/24 07:34:35;;;;;;;18.17;6.40;;;19.10;70.10;;;;;;10450016;28;20071;-60
2023/09/24 07:39:35;;;;;;;23.73;5.53;;;19.10;69.70;;;;;;10450981;28;20047;-60
2023/09/24 07:44:36;;;;;;;24.63;5.97;;;19.10;69.90;;;;;;10460091;28;20074;-61
2023/09/24 07:49:37;;;;;;;23.98;6.07;;;19.10;69.40;;;;;;10479457;28;20028;-58
2023/09/24 07:54:38;;;;;;;22.90;5.32;;;19.10;69.60;;;;;;10490905;28;20101;-57
2023/09/24 07:59:38;;;;;;;18.85;4.57;;;19.20;69.90;;;;;;10491372;28;20488;-58
2023/09/24 08:04:39;;;;;;;26.30;6.38;;;19.20;70.40;;;;;;10490737;28;20036;-57
2023/09/24 08:09:40;;;;;;;13.07;4.20;;;19.30;70.70;;;;;;10491215;28;20032;-59
2023/09/24 08:14:43;;;;;;;16.73;4.55;;;19.40;71.20;;;;;;10484976;28;20028;-56
2023/09/24 08:19:44;;;;;;;24.95;6.20;;;19.40;71.20;;;;;;10449279;28;20068;-59
2023/09/24 08:24:44;;;;;;;17.27;4.80;;;19.40;71.50;;;;;;10450572;28;20662;-59
2023/09/24 08:29:45;;;;;;;15.90;5.35;;;19.40;71.40;;;;;;10472336;28;20051;-56
2023/09/24 08:34:46;;;;;;;11.48;4.68;;;19.40;71.60;;;;;;10482244;28;20029;-57
2023/09/24 08:39:47;;;;;;;20.58;5.35;;;19.40;71.20;;;;;;10498335;28;20036;-57
2023/09/24 08:45:11;;;;;;;15.23;5.93;;;19.50;72.10;;;;;;10498111;28;20036;-57
2023/09/24 08:50:13;;;;;;;21.30;4.57;;;19.50;72.20;;;;;;10469478;28;20032;-59
2023/09/24 08:55:14;;;;;;;35.65;5.13;;;19.60;73.00;;;;;;10463097;28;20033;-56
2023/09/24 09:00:16;;;;;;;17.00;4.78;;;19.60;71.70;;;;;;10473139;28;20055;-58
2023/09/24 09:05:27;;;;;;;25.17;4.32;;;19.50;71.40;;;;;;10458840;28;20021;-59
2023/09/24 09:10:37;;;;;;;13.88;3.55;;;19.40;71.90;;;;;;10456020;28;20033;-58
2023/09/24 09:15:40;;;;;;;18.42;4.35;;;19.40;71.90;;;;;;10461939;28;20037;-60
2023/09/24 09:20:49;;;;;;;19.95;5.20;;;19.50;72.00;;;;;;10466585;28;20162;-57
2023/09/24 09:25:52;;;;;;;13.75;4.45;;;19.50;71.80;;;;;;10464388;28;20106;-58
2023/09/24 09:31:07;;;;;;;16.25;5.72;;;19.40;71.90;;;;;;10480290;28;20041;-57
2023/09/24 09:36:27;;;;;;;9.07;4.00;;;19.40;71.60;;;;;;10454400;28;20029;-58
2023/09/24 09:41:32;;;;;;;11.43;4.18;;;19.50;71.80;;;;;;10454039;28;20025;-60
2023/09/24 09:46:38;;;;;;;16.75;3.88;;;19.50;71.80;;;;;;10470174;28;20052;-58
2023/09/24 09:51:47;;;;;;;11.07;3.65;;;19.50;71.80;;;;;;10495661;28;20032;-58
2023/09/24 09:56:50;;;;;;;14.70;3.75;;;19.50;71.70;;;;;;10495051;28;20095;-58
2023/09/24 10:01:50;;;;;;;6.70;3.35;;;19.60;71.90;;;;;;10460279;28;20468;-58
2023/09/24 10:06:51;;;;;;;10.05;3.15;;;19.60;71.80;;;;;;10484268;28;20033;-57
2023/09/24 10:11:55;;;;;;;10.68;2.70;;;19.60;72.00;;;;;;10494957;28;20383;-59
2023/09/24 10:16:56;;;;;;;8.27;3.17;;;19.60;71.80;;;;;;10469287;28;20613;-57
2023/09/24 10:22:34;;;;;;;13.70;3.33;;;19.60;72.00;;;;;;10478045;28;20094;-58
2023/09/24 10:28:05;;;;;;;4.78;2.90;;;19.70;72.60;;;;;;10494067;28;20020;-58
2023/09/24 10:33:07;;;;;;;9.15;3.70;;;19.70;72.10;;;;;;10488591;28;20486;-59
2023/09/24 10:38:08;;;;;;;6.70;3.75;;;19.70;72.70;;;;;;10480020;28;20056;-57
2023/09/24 10:43:14;;;;;;;10.20;3.08;;;19.70;72.10;;;;;;10451717;28;20037;-58
2023/09/24 10:48:16;;;;;;;8.25;2.40;;;19.80;72.00;;;;;;10451709;28;20048;-58
2023/09/24 10:53:18;;;;;;;5.80;2.50;;;19.80;72.00;;;;;;10451670;28;20066;-60
2023/09/24 10:58:19;;;;;;;11.00;2.97;;;19.80;71.90;;;;;;10451325;28;20110;-58
2023/09/24 11:03:20;;;;;;;12.23;2.83;;;19.80;71.70;;;;;;10451829;28;20098;-58
2023/09/24 11:08:29;;;;;;;9.52;2.30;;;19.80;71.70;;;;;;10450716;28;20033;-58
2023/09/24 11:13:30;;;;;;;12.55;2.65;;;19.80;71.70;;;;;;10462297;28;20063;-59
2023/09/24 11:18:32;;;;;;;5.35;1.50;;;19.80;71.70;;;;;;10455016;28;20045;-58
2023/09/24 11:23:36;;;;;;;12.65;3.13;;;19.90;71.30;;;;;;10451135;28;20070;-62
2023/09/24 11:28:37;;;;;;;8.95;2.67;;;19.90;71.20;;;;;;10483787;28;20036;-57
2023/09/24 11:33:39;;;;;;;6.95;2.60;;;19.90;70.50;;;;;;10450999;28;20474;-59
2023/09/24 11:38:40;;;;;;;14.60;3.63;;;20.30;71.80;;;;;;10449826;28;20029;-59
2023/09/24 11:43:42;;;;;;;11.35;2.78;;;20.40;72.20;;;;;;10450166;28;20403;-59
2023/09/24 11:48:44;;;;;;;7.80;2.47;;;20.60;71.40;;;;;;10449829;28;20068;-60
2023/09/24 11:53:44;;;;;;;9.13;2.17;;;20.70;69.80;;;;;;10450154;28;20528;-60
2023/09/24 11:58:45;;;;;;;9.10;2.00;;;20.80;68.90;;;;;;10449463;28;20025;-59
2023/09/24 12:03:47;;;;;;;7.15;2.58;;;20.90;68.00;;;;;;10449897;28;20598;-61
2023/09/24 12:08:48;;;;;;;8.35;2.88;;;20.90;68.70;;;;;;10467932;28;20036;-60
2023/09/24 12:13:50;;;;;;;10.70;2.95;;;20.80;69.10;;;;;;10456237;28;20036;-60
2023/09/24 12:18:51;;;;;;;3.92;1.50;;;20.70;68.90;;;;;;10473378;28;20052;-59
2023/09/24 12:23:52;;;;;;;6.38;2.25;;;20.70;69.50;;;;;;10479128;28;20032;-59
2023/09/24 12:28:53;;;;;;;3.95;1.75;;;20.70;70.10;;;;;;10477779;28;20024;-60
2023/09/24 12:33:53;;;;;;;4.10;2.45;;;20.70;69.70;;;;;;10481878;28;20362;-60
2023/09/24 12:38:54;;;;;;;5.05;1.52;;;20.80;69.10;;;;;;10469915;28;20029;-60
2023/09/24 12:43:55;;;;;;;4.80;2.08;;;20.50;68.30;;;;;;10483229;28;20028;-59
2023/09/24 12:48:56;;;;;;;5.05;2.10;;;20.30;68.80;;;;;;10464061;28;20551;-59
2023/09/24 12:53:57;;;;;;;6.05;1.75;;;20.40;70.50;;;;;;10487573;28;20044;-59
2023/09/24 12:59:04;;;;;;;5.38;1.92;;;20.30;68.50;;;;;;10488193;28;20060;-59
2023/09/24 13:04:05;;;;;;;3.22;1.70;;;20.20;68.70;;;;;;10456511;28;20025;-59
2023/09/24 13:09:05;;;;;;;5.55;2.08;;;20.20;69.20;;;;;;10463389;28;20036;-59
2023/09/24 13:14:07;;;;;;;5.57;2.28;;;20.40;70.00;;;;;;10471647;28;20499;-59
2023/09/24 13:19:11;;;;;;;4.20;1.70;;;20.50;69.20;;;;;;10462856;28;20064;-58
2023/09/24 13:24:13;;;;;;;6.05;1.70;;;20.20;68.70;;;;;;10455366;28;20160;-59
2023/09/24 13:29:14;;;;;;;3.83;1.50;;;20.20;68.80;;;;;;10467488;28;20086;-58
2023/09/24 13:34:15;;;;;;;4.13;1.75;;;20.10;68.90;;;;;;10485646;28;20039;-60
2023/09/24 13:39:16;;;;;;;4.55;2.25;;;20.10;69.60;;;;;;10460047;28;20104;-59
2023/09/24 13:44:17;;;;;;;3.58;1.60;;;20.00;69.10;;;;;;10476682;28;20032;-58
2023/09/24 13:49:18;;;;;;;5.65;1.73;;;20.00;69.00;;;;;;10472354;28;20053;-56
2023/09/24 13:54:19;;;;;;;4.28;1.67;;;20.00;69.20;;;;;;10453972;28;20052;-57
2023/09/24 13:59:20;;;;;;;5.20;1.75;;;20.00;69.20;;;;;;10454501;28;20029;-57
2023/09/24 14:04:21;;;;;;;4.00;1.88;;;20.00;69.20;;;;;;10475437;28;20023;-57
2023/09/24 14:14:40;;;;;;;5.03;1.77;;;20.00;69.30;;;;;;10464520;28;20033;-57
2023/09/24 14:19:41;;;;;;;6.65;2.40;;;20.00;69.30;;;;;;10472431;28;20048;-58
2023/09/24 14:24:42;;;;;;;6.60;1.70;;;20.10;69.90;;;;;;10463666;28;20032;-58
2023/09/24 14:29:43;;;;;;;5.95;1.50;;;20.00;69.60;;;;;;10476209;28;20029;-58
2023/09/24 14:34:44;;;;;;;4.72;1.95;;;19.90;69.10;;;;;;10472265;28;20372;-58
2023/09/24 14:39:44;;;;;;;4.28;2.53;;;19.90;69.30;;;;;;10465880;28;20052;-58
2023/09/24 14:44:45;;;;;;;4.28;1.67;;;19.90;69.30;;;;;;10468484;28;20054;-58
2023/09/24 14:49:46;;;;;;;5.68;1.70;;;19.90;69.80;;;;;;10464758;28;20583;-59
2023/09/24 14:54:46;;;;;;;5.43;2.30;;;19.90;70.20;;;;;;10471963;28;20039;-58
2023/09/24 14:59:47;;;;;;;6.00;1.85;;;19.90;69.30;;;;;;10455510;28;20036;-58
2023/09/24 15:04:50;;;;;;;3.60;1.30;;;19.90;70.30;;;;;;10451210;28;20028;-57
2023/09/24 15:09:50;;;;;;;2.85;1.33;;;19.90;70.40;;;;;;10449822;28;20036;-58
2023/09/24 15:14:51;;;;;;;3.95;1.63;;;19.90;70.40;;;;;;10450025;28;20384;-58
2023/09/24 15:19:52;;;;;;;5.03;1.70;;;19.90;70.30;;;;;;10484771;28;20044;-58
2023/09/24 15:24:53;;;;;;;2.10;1.20;;;19.90;70.30;;;;;;10490830;28;20037;-58
2023/09/24 15:29:53;;;;;;;4.47;2.17;;;19.90;70.30;;;;;;10490753;28;20036;-59
2023/09/24 15:34:54;;;;;;;6.97;1.60;;;19.90;70.30;;;;;;10490865;28;20036;-61
2023/09/24 15:39:55;;;;;;;5.97;1.92;;;20.00;70.40;;;;;;10490551;28;20032;-58
2023/09/24 15:44:55;;;;;;;5.43;2.03;;;20.00;70.50;;;;;;10490042;28;20537;-58
2023/09/24 15:49:57;;;;;;;4.18;1.58;;;20.00;70.00;;;;;;10490029;28;20061;-59
2023/09/24 15:54:57;;;;;;;4.60;1.73;;;20.10;69.70;;;;;;10490743;28;20029;-59
2023/09/24 15:59:59;;;;;;;5.00;1.70;;;20.30;69.10;;;;;;10490250;28;20029;-59
2023/09/24 16:04:59;;;;;;;3.10;1.67;;;20.40;68.90;;;;;;10490429;28;20098;-59
2023/09/24 16:10:02;;;;;;;3.28;1.52;;;20.50;70.60;;;;;;10483967;28;20060;-60
2023/09/24 16:15:03;;;;;;;4.57;2.20;;;20.50;70.90;;;;;;10472176;28;20083;-58
2023/09/24 16:20:08;;;;;;;6.95;2.63;;;20.60;70.20;;;;;;10459595;28;20052;-58
2023/09/24 16:25:09;;;;;;;6.05;1.95;;;20.60;70.50;;;;;;10449496;28;20040;-56
2023/09/24 16:30:11;;;;;;;9.25;2.10;;;20.70;71.00;;;;;;10460774;28;20051;-60
2023/09/24 16:35:13;;;;;;;7.22;2.67;;;20.70;71.30;;;;;;10448772;28;20435;-58
2023/09/24 16:40:14;;;;;;;4.88;3.03;;;20.80;71.20;;;;;;10448470;28;20037;-61
2023/09/24 16:45:15;;;;;;;7.78;3.00;;;20.70;71.00;;;;;;10448251;28;20031;-61
2023/09/24 16:50:16;;;;;;;7.38;3.50;;;20.80;73.20;;;;;;10471282;28;20036;-58
2023/09/24 16:55:16;;;;;;;8.57;3.53;;;21.00;72.80;;;;;;10495327;28;20023;-57
2023/09/24 17:00:17;;;;;;;8.77;3.15;;;21.10;72.70;;;;;;10496768;28;20028;-56
2023/09/24 17:05:18;;;;;;;6.20;2.55;;;21.20;72.90;;;;;;10496779;28;20035;-58
2023/09/24 17:10:18;;;;;;;8.23;3.33;;;21.10;72.80;;;;;;10495836;28;20044;-58
2023/09/24 17:15:21;;;;;;;9.30;3.67;;;21.10;72.90;;;;;;10478690;28;20033;-58
2023/09/24 17:20:25;;;;;;;6.97;2.28;;;21.10;72.50;;;;;;10493139;28;20028;-59
2023/09/24 17:25:26;;;;;;;6.25;2.97;;;21.00;72.50;;;;;;10495891;28;20032;-59
2023/09/24 17:30:27;;;;;;;5.10;2.47;;;20.80;73.20;;;;;;10486807;28;20044;-59
2023/09/24 17:35:28;;;;;;;7.22;2.78;;;20.60;73.50;;;;;;10454996;28;20037;-58
2023/09/24 17:40:28;;;;;;;4.78;2.47;;;20.50;73.60;;;;;;10474200;28;20474;-59
2023/09/24 17:45:29;;;;;;;6.45;2.17;;;20.50;73.50;;;;;;10470487;28;20479;-59
2023/09/24 17:50:30;;;;;;;9.25;2.67;;;20.40;73.40;;;;;;10493168;28;20029;-59
2023/09/24 17:55:30;;;;;;;12.88;2.90;;;20.40;73.60;;;;;;10495034;28;20032;-59
2023/09/24 18:00:31;;;;;;;4.97;2.30;;;20.30;73.70;;;;;;10469045;28;20088;-58
2023/09/24 18:05:32;;;;;;;6.13;2.10;;;20.30;73.40;;;;;;10465277;28;20038;-57
2023/09/24 18:10:32;;;;;;;9.32;2.53;;;20.20;73.50;;;;;;10479504;28;20048;-58
2023/09/24 18:15:33;;;;;;;9.07;2.38;;;20.20;73.60;;;;;;10485478;28;20060;-56
2023/09/24 18:20:34;;;;;;;6.85;2.50;;;20.20;73.50;;;;;;10474562;28;20029;-57
2023/09/24 18:25:35;;;;;;;6.18;2.45;;;20.20;73.40;;;;;;10470790;28;20036;-57
2023/09/24 18:30:38;;;;;;;7.32;2.13;;;20.20;73.30;;;;;;10484366;28;20357;-56
2023/09/24 18:35:40;;;;;;;8.45;2.50;;;20.30;73.00;;;;;;10471255;28;20061;-56
2023/09/24 18:40:41;;;;;;;5.13;2.47;;;20.30;73.30;;;;;;10451106;28;20059;-56
2023/09/24 18:45:42;;;;;;;7.15;1.90;;;20.30;73.30;;;;;;10475165;28;20067;-57
2023/09/24 18:50:43;;;;;;;5.75;2.00;;;20.20;73.40;;;;;;10472019;28;20072;-56
2023/09/24 18:55:43;;;;;;;6.20;1.70;;;20.10;73.20;;;;;;10451181;28;20535;-57
2023/09/24 19:00:44;;;;;;;8.77;2.30;;;20.10;73.60;;;;;;10462063;28;20102;-57
2023/09/24 19:05:45;;;;;;;8.38;2.20;;;20.00;73.60;;;;;;10491842;28;20016;-57
2023/09/24 19:10:52;;;;;;;11.07;2.85;;;20.00;73.80;;;;;;10492128;28;20029;-57
2023/09/24 19:16:03;;;;;;;5.25;2.53;;;20.00;73.90;;;;;;10470895;28;20037;-57
2023/09/24 19:21:04;;;;;;;6.63;1.90;;;20.00;74.00;;;;;;10492284;28;20033;-56
2023/09/24 19:26:16;;;;;;;6.57;1.98;;;20.00;73.90;;;;;;10465500;28;20037;-57
2023/09/24 19:31:16;;;;;;;7.97;2.13;;;20.00;74.10;;;;;;10462201;28;20029;-56
2023/09/24 19:36:17;;;;;;;8.35;2.00;;;20.00;74.10;;;;;;10470212;28;20533;-57
2023/09/24 19:41:18;;;;;;;8.02;2.25;;;20.00;74.20;;;;;;10486928;28;20024;-55
2023/09/24 19:46:19;;;;;;;9.07;2.50;;;20.00;74.20;;;;;;10488252;28;20067;-55
2023/09/24 19:51:20;;;;;;;8.00;2.45;;;20.00;74.20;;;;;;10466232;28;20458;-56
2023/09/24 19:56:21;;;;;;;4.63;1.95;;;20.00;74.20;;;;;;10460399;28;20100;-55
2023/09/24 20:01:22;;;;;;;5.97;1.92;;;20.00;74.40;;;;;;10447610;28;20027;-56
2023/09/24 20:06:22;;;;;;;6.55;1.83;;;20.00;74.40;;;;;;10445093;28;20032;-56
2023/09/24 20:11:23;;;;;;;7.60;2.10;;;19.90;74.50;;;;;;10446617;28;20119;-56
2023/09/24 20:16:24;;;;;;;5.18;2.33;;;19.90;74.50;;;;;;10453101;28;20048;-56
2023/09/24 20:21:25;;;;;;;6.75;1.80;;;19.90;74.50;;;;;;10489370;28;20173;-57
2023/09/24 20:26:26;;;;;;;6.38;2.13;;;19.80;74.40;;;;;;10490537;28;20090;-57
2023/09/24 20:31:26;;;;;;;3.95;1.92;;;19.80;74.30;;;;;;10481807;28;20411;-56
2023/09/24 20:36:29;;;;;;;3.78;1.75;;;19.80;74.30;;;;;;10457230;28;20452;-56
2023/09/24 20:41:31;;;;;;;4.22;1.80;;;19.80;74.30;;;;;;10457049;28;20025;-56
2023/09/24 20:46:39;;;;;;;5.53;2.67;;;19.80;74.30;;;;;;10456369;28;20020;-56
2023/09/24 20:51:40;;;;;;;6.17;2.07;;;19.80;74.30;;;;;;10475262;28;20052;-57
2023/09/24 20:56:42;;;;;;;4.03;1.70;;;19.80;74.30;;;;;;10497625;28;20037;-57
2023/09/24 21:01:43;;;;;;;5.55;1.80;;;19.80;74.30;;;;;;10477918;28;20132;-57
2023/09/24 21:06:43;;;;;;;4.45;1.80;;;19.80;74.30;;;;;;10455991;28;20052;-58
2023/09/24 21:11:44;;;;;;;5.05;1.70;;;19.70;74.20;;;;;;10456121;28;20035;-56
2023/09/24 21:16:46;;;;;;;4.43;1.63;;;19.70;74.30;;;;;;10487760;28;20621;-57
2023/09/24 21:21:47;;;;;;;4.13;1.67;;;19.70;74.20;;;;;;10497158;28;20056;-57
2023/09/24 21:26:47;;;;;;;3.63;1.40;;;19.70;74.20;;;;;;10496654;28;20028;-56
2023/09/24 21:31:48;;;;;;;3.33;1.60;;;19.70;74.20;;;;;;10477017;28;20102;-57
2023/09/24 21:36:49;;;;;;;2.53;1.70;;;19.70;74.10;;;;;;10454807;28;20039;-57
2023/09/24 21:41:50;;;;;;;4.63;1.67;;;19.70;74.20;;;;;;10453423;28;20033;-57
2023/09/24 21:46:50;;;;;;;3.55;1.48;;;19.70;74.10;;;;;;10454168;28;20025;-56
2023/09/24 21:51:51;;;;;;;3.30;1.80;;;19.70;74.10;;;;;;10454484;28;20082;-57
2023/09/24 21:56:52;;;;;;;6.75;1.90;;;19.60;74.10;;;;;;10454017;28;20021;-57
2023/09/24 22:01:53;;;;;;;4.07;1.38;;;19.60;74.10;;;;;;10454289;28;20110;-57
2023/09/24 22:06:54;;;;;;;4.13;2.20;;;19.60;74.10;;;;;;10475226;28;20499;-57
2023/09/24 22:11:54;;;;;;;2.97;0.88;;;19.60;74.00;;;;;;10453923;28;20029;-57
2023/09/24 22:16:55;;;;;;;2.42;0.98;;;19.60;74.00;;;;;;10453141;28;20045;-56
2023/09/24 22:21:56;;;;;;;2.88;1.77;;;19.60;74.00;;;;;;10491341;28;20029;-57
2023/09/24 22:26:56;;;;;;;2.65;1.20;;;19.60;74.00;;;;;;10494388;28;20662;-57
2023/09/24 22:31:57;;;;;;;2.33;1.63;;;19.60;74.00;;;;;;10473476;28;20033;-57
2023/09/24 22:36:58;;;;;;;1.65;0.90;;;19.60;74.00;;;;;;10452670;28;20032;-57
2023/09/24 22:41:59;;;;;;;1.75;1.38;;;19.60;73.90;;;;;;10452770;28;20029;-57
2023/09/24 22:47:00;;;;;;;1.50;1.17;;;19.60;73.90;;;;;;10452036;28;20036;-57
2023/09/24 22:52:01;;;;;;;1.83;1.10;;;19.60;73.90;;;;;;10451637;28;20025;-57
2023/09/24 22:57:01;;;;;;;2.17;1.20;;;19.60;73.80;;;;;;10451708;28;20040;-57
2023/09/24 23:02:02;;;;;;;3.15;1.38;;;19.60;73.80;;;;;;10451550;28;20025;-57
2023/09/24 23:07:03;;;;;;;2.15;1.10;;;19.50;73.80;;;;;;10451120;28;20666;-57
2023/09/24 23:12:04;;;;;;;3.25;1.80;;;19.60;73.80;;;;;;10451400;28;20040;-56
2023/09/24 23:17:06;;;;;;;2.60;0.95;;;19.50;73.70;;;;;;10462748;28;20131;-58
2023/09/24 23:22:06;;;;;;;4.80;1.83;;;19.50;73.70;;;;;;10451176;28;20029;-57
2023/09/24 23:27:08;;;;;;;3.50;1.52;;;19.50;73.40;;;;;;10450500;28;20468;-57
2023/09/24 23:32:09;;;;;;;2.47;1.27;;;19.50;73.50;;;;;;10463775;28;20033;-57
2023/09/24 23:37:11;;;;;;;3.05;1.70;;;19.50;73.40;;;;;;10450176;28;20028;-57
2023/09/24 23:42:13;;;;;;;3.67;1.35;;;19.50;73.30;;;;;;10450747;28;20021;-57
2023/09/24 23:47:13;;;;;;;2.53;1.77;;;19.50;73.40;;;;;;10450050;28;20477;-58
2023/09/24 23:52:14;;;;;;;2.28;1.67;;;19.50;73.30;;;;;;10450467;28;20051;-57
2023/09/24 23:57:15;;;;;;;4.32;1.77;;;19.50;73.20;;;;;;10459059;28;20043;-57
